sensor_id;sensor_type;location;lat;lon;timestamp;pressure;altitude;pressure_sealevel;temperature;humidity
56928;BME280;60850;52.502;13.426;2023-04-22T00:00:18;101086.63;;;11.58;80.45
56928;BME280;60850;52.502;13.426;2023-04-22T00:03:05;101092.09;;;11.53;80.31
56928;BME280;60850;52.502;13.426;2023-04-22T00:05:34;101086.78;;;11.51;80.03
56928;BME280;60850;52.502;13.426;2023-04-22T00:08:02;101083.19;;;11.52;80.58
56928;BME280;60850;52.502;13.426;2023-04-22T00:10:29;101083.16;;;11.54;79.70
56928;BME280;60850;52.502;13.426;2023-04-22T00:12:56;101076.94;;;11.53;79.59
56928;BME280;60850;52.502;13.426;2023-04-22T00:15:23;101077.84;;;11.52;79.05
56928;BME280;60850;52.502;13.426;2023-04-22T00:17:51;101071.72;;;11.49;79.89
56928;BME280;60850;52.502;13.426;2023-04-22T00:20:19;101069.06;;;11.49;79.38
56928;BME280;60850;52.502;13.426;2023-04-22T00:22:48;101064.66;;;11.46;80.20
56928;BME280;60850;52.502;13.426;2023-04-22T00:25:15;101058.59;;;11.40;80.75
56928;BME280;60850;52.502;13.426;2023-04-22T00:27:42;101054.22;;;11.37;80.78
56928;BME280;60850;52.502;13.426;2023-04-22T00:30:11;101057.94;;;11.30;82.02
56928;BME280;60850;52.502;13.426;2023-04-22T00:32:37;101057.13;;;11.28;81.88
56928;BME280;60850;52.502;13.426;2023-04-22T00:35:05;101051.94;;;11.20;82.87
56928;BME280;60850;52.502;13.426;2023-04-22T00:37:33;101055.63;;;11.16;83.23
56928;BME280;60850;52.502;13.426;2023-04-22T00:40:01;101054.78;;;11.13;84.27
56928;BME280;60850;52.502;13.426;2023-04-22T00:42:29;101045.84;;;11.15;83.23
56928;BME280;60850;52.502;13.426;2023-04-22T00:44:57;101049.50;;;11.11;83.75
56928;BME280;60850;52.502;13.426;2023-04-22T00:47:24;101051.34;;;11.09;84.43
56928;BME280;60850;52.502;13.426;2023-04-22T00:49:53;101034.44;;;11.09;83.90
56928;BME280;60850;52.502;13.426;2023-04-22T00:52:20;101046.84;;;11.11;84.16
56928;BME280;60850;52.502;13.426;2023-04-22T00:54:47;101034.50;;;11.07;83.70
56928;BME280;60850;52.502;13.426;2023-04-22T00:57:16;101042.59;;;11.03;84.80
56928;BME280;60850;52.502;13.426;2023-04-22T00:59:43;101036.47;;;10.97;85.23
56928;BME280;60850;52.502;13.426;2023-04-22T01:02:11;101042.69;;;10.98;85.96
56928;BME280;60850;52.502;13.426;2023-04-22T01:04:38;101044.53;;;10.96;84.97
56928;BME280;60850;52.502;13.426;2023-04-22T01:07:05;101034.78;;;10.95;85.07
56928;BME280;60850;52.502;13.426;2023-04-22T01:09:32;101040.13;;;10.95;85.67
56928;BME280;60850;52.502;13.426;2023-04-22T01:12:00;101033.91;;;10.94;85.20
56928;BME280;60850;52.502;13.426;2023-04-22T01:14:29;101044.56;;;10.94;84.84
56928;BME280;60850;52.502;13.426;2023-04-22T01:16:56;101039.50;;;10.82;85.95
56928;BME280;60850;52.502;13.426;2023-04-22T01:19:23;101035.06;;;10.83;86.78
56928;BME280;60850;52.502;13.426;2023-04-22T01:21:50;101029.88;;;10.75;87.49
56928;BME280;60850;52.502;13.426;2023-04-22T01:24:20;101037.97;;;10.72;87.46
56928;BME280;60850;52.502;13.426;2023-04-22T01:26:47;101031.91;;;10.65;88.71
56928;BME280;60850;52.502;13.426;2023-04-22T01:29:15;101029.19;;;10.67;88.78
56928;BME280;60850;52.502;13.426;2023-04-22T01:31:41;101027.53;;;10.61;88.58
56928;BME280;60850;52.502;13.426;2023-04-22T01:34:09;101028.38;;;10.63;88.73
56928;BME280;60850;52.502;13.426;2023-04-22T01:36:36;101032.13;;;10.55;89.33
56928;BME280;60850;52.502;13.426;2023-04-22T01:39:04;101031.31;;;10.51;89.55
56928;BME280;60850;52.502;13.426;2023-04-22T01:41:33;101026.00;;;10.51;90.10
56928;BME280;60850;52.502;13.426;2023-04-22T01:44:02;101027.63;;;10.57;89.97
56928;BME280;60850;52.502;13.426;2023-04-22T01:46:28;101021.47;;;10.55;89.40
56928;BME280;60850;52.502;13.426;2023-04-22T01:48:56;101015.22;;;10.56;89.65
56928;BME280;60850;52.502;13.426;2023-04-22T01:51:23;101020.66;;;10.50;90.21
56928;BME280;60850;52.502;13.426;2023-04-22T01:53:50;101018.13;;;10.45;90.70
56928;BME280;60850;52.502;13.426;2023-04-22T01:56:17;101013.88;;;10.36;91.71
56928;BME280;60850;52.502;13.426;2023-04-22T01:58:46;101007.72;;;10.33;91.95
56928;BME280;60850;52.502;13.426;2023-04-22T02:01:12;101008.59;;;10.33;91.88
56928;BME280;60850;52.502;13.426;2023-04-22T02:03:40;101007.69;;;10.34;91.21
56928;BME280;60850;52.502;13.426;2023-04-22T02:06:07;101011.28;;;10.32;92.25
56928;BME280;60850;52.502;13.426;2023-04-22T02:08:34;101001.50;;;10.32;92.39
56928;BME280;60850;52.502;13.426;2023-04-22T02:11:01;100998.13;;;10.24;93.75
56928;BME280;60850;52.502;13.426;2023-04-22T02:13:33;101002.50;;;10.27;92.66
56928;BME280;60850;52.502;13.426;2023-04-22T02:16:02;100999.03;;;10.22;93.51
56928;BME280;60850;52.502;13.426;2023-04-22T02:18:29;100991.91;;;10.25;93.49
56928;BME280;60850;52.502;13.426;2023-04-22T02:20:56;100993.69;;;10.25;93.04
56928;BME280;60850;52.502;13.426;2023-04-22T02:23:23;100989.16;;;10.28;92.85
56928;BME280;60850;52.502;13.426;2023-04-22T02:25:51;100989.09;;;10.31;93.05
56928;BME280;60850;52.502;13.426;2023-04-22T02:28:19;100981.09;;;10.31;92.99
56928;BME280;60850;52.502;13.426;2023-04-22T02:30:46;100984.78;;;10.26;92.83
56928;BME280;60850;52.502;13.426;2023-04-22T02:33:15;100977.00;;;10.15;94.09
56928;BME280;60850;52.502;13.426;2023-04-22T02:35:41;100979.56;;;10.18;93.23
56928;BME280;60850;52.502;13.426;2023-04-22T02:38:09;100970.53;;;10.27;92.82
56928;BME280;60850;52.502;13.426;2023-04-22T02:40:36;100973.34;;;10.19;93.38
56928;BME280;60850;52.502;13.426;2023-04-22T02:43:03;100977.00;;;10.15;93.07
56928;BME280;60850;52.502;13.426;2023-04-22T02:45:30;100969.13;;;10.07;93.60
56928;BME280;60850;52.502;13.426;2023-04-22T02:47:57;100969.22;;;10.04;94.20
56928;BME280;60850;52.502;13.426;2023-04-22T02:50:25;100966.66;;;9.98;94.35
56928;BME280;60850;52.502;13.426;2023-04-22T02:52:53;100964.84;;;10.02;93.83
56928;BME280;60850;52.502;13.426;2023-04-22T02:55:20;100965.75;;;9.99;94.51
56928;BME280;60850;52.502;13.426;2023-04-22T02:57:49;100959.59;;;9.97;94.56
56928;BME280;60850;52.502;13.426;2023-04-22T03:00:16;100964.94;;;9.96;94.53
56928;BME280;60850;52.502;13.426;2023-04-22T03:02:43;100964.16;;;9.90;95.00
56928;BME280;60850;52.502;13.426;2023-04-22T03:05:10;100962.44;;;9.86;94.62
56928;BME280;60850;52.502;13.426;2023-04-22T03:07:38;100966.94;;;9.84;95.27
56928;BME280;60850;52.502;13.426;2023-04-22T03:10:06;100962.44;;;9.86;94.12
56928;BME280;60850;52.502;13.426;2023-04-22T03:12:34;100966.91;;;9.87;94.67
56928;BME280;60850;52.502;13.426;2023-04-22T03:15:01;100966.09;;;9.82;94.21
56928;BME280;60850;52.502;13.426;2023-04-22T03:17:28;100963.56;;;9.76;94.64
56928;BME280;60850;52.502;13.426;2023-04-22T03:19:55;100955.66;;;9.73;95.39
56928;BME280;60850;52.502;13.426;2023-04-22T03:22:22;100956.59;;;9.69;95.52
56928;BME280;60850;52.502;13.426;2023-04-22T03:24:50;100959.22;;;9.71;95.53
56928;BME280;60850;52.502;13.426;2023-04-22T03:27:17;100957.41;;;9.74;94.95
56928;BME280;60850;52.502;13.426;2023-04-22T03:29:44;100964.38;;;9.80;94.86
56928;BME280;60850;52.502;13.426;2023-04-22T03:32:11;100952.13;;;9.71;95.27
56928;BME280;60850;52.502;13.426;2023-04-22T03:34:38;100949.59;;;9.63;96.12
56928;BME280;60850;52.502;13.426;2023-04-22T03:37:05;100962.88;;;9.67;96.39
56928;BME280;60850;52.502;13.426;2023-04-22T03:39:32;100962.84;;;9.68;96.85
56928;BME280;60850;52.502;13.426;2023-04-22T03:42:01;100965.53;;;9.65;96.64
56928;BME280;60850;52.502;13.426;2023-04-22T03:44:27;100968.31;;;9.60;97.13
56928;BME280;60850;52.502;13.426;2023-04-22T03:46:55;100963.78;;;9.64;97.19
56928;BME280;60850;52.502;13.426;2023-04-22T03:49:22;100964.81;;;9.57;97.75
56928;BME280;60850;52.502;13.426;2023-04-22T03:51:49;100963.13;;;9.53;98.38
56928;BME280;60850;52.502;13.426;2023-04-22T03:54:15;100961.44;;;9.47;99.39
56928;BME280;60850;52.502;13.426;2023-04-22T03:56:43;100956.97;;;9.49;99.38
56928;BME280;60850;52.502;13.426;2023-04-22T03:59:11;100962.28;;;9.49;100.00
56928;BME280;60850;52.502;13.426;2023-04-22T04:01:38;100968.59;;;9.44;100.00
56928;BME280;60850;52.502;13.426;2023-04-22T04:04:05;100963.25;;;9.47;100.00
56928;BME280;60850;52.502;13.426;2023-04-22T04:06:32;100961.34;;;9.53;100.00
56928;BME280;60850;52.502;13.426;2023-04-22T04:08:59;100968.41;;;9.54;100.00
56928;BME280;60850;52.502;13.426;2023-04-22T04:11:26;100964.88;;;9.54;100.00
56928;BME280;60850;52.502;13.426;2023-04-22T04:13:53;100964.94;;;9.49;100.00
56928;BME280;60850;52.502;13.426;2023-04-22T04:16:22;100962.19;;;9.55;100.00
56928;BME280;60850;52.502;13.426;2023-04-22T04:18:49;100964.66;;;9.64;100.00
56928;BME280;60850;52.502;13.426;2023-04-22T04:21:16;100965.13;;;9.86;100.00
56928;BME280;60850;52.502;13.426;2023-04-22T04:23:43;100960.47;;;9.98;98.51
56928;BME280;60850;52.502;13.426;2023-04-22T04:26:10;100961.56;;;9.87;99.39
56928;BME280;60850;52.502;13.426;2023-04-22T04:28:39;100969.56;;;9.87;99.39
56928;BME280;60850;52.502;13.426;2023-04-22T04:31:06;100963.78;;;10.09;98.86
56928;BME280;60850;52.502;13.426;2023-04-22T04:33:35;100966.31;;;10.57;95.70
56928;BME280;60850;52.502;13.426;2023-04-22T04:36:03;100963.03;;;10.83;93.05
56928;BME280;60850;52.502;13.426;2023-04-22T04:38:30;100955.28;;;10.73;92.50
56928;BME280;60850;52.502;13.426;2023-04-22T04:40:57;100956.19;;;10.71;92.60
56928;BME280;60850;52.502;13.426;2023-04-22T04:43:24;100960.28;;;10.87;91.62
56928;BME280;60850;52.502;13.426;2023-04-22T04:45:52;100965.75;;;11.17;90.34
56928;BME280;60850;52.502;13.426;2023-04-22T04:48:18;100964.06;;;11.47;87.68
56928;BME280;60850;52.502;13.426;2023-04-22T04:50:51;100969.44;;;11.79;86.18
56928;BME280;60850;52.502;13.426;2023-04-22T04:53:19;100965.88;;;11.79;83.64
56928;BME280;60850;52.502;13.426;2023-04-22T04:55:47;100967.75;;;12.08;82.76
56928;BME280;60850;52.502;13.426;2023-04-22T04:58:14;100971.88;;;12.49;77.49
56928;BME280;60850;52.502;13.426;2023-04-22T05:00:41;100960.78;;;13.16;72.48
56928;BME280;60850;52.502;13.426;2023-04-22T05:03:08;100958.31;;;13.63;72.58
56928;BME280;60850;52.502;13.426;2023-04-22T05:05:35;100960.66;;;14.20;65.67
56928;BME280;60850;52.502;13.426;2023-04-22T05:08:03;100964.31;;;14.87;61.28
56928;BME280;60850;52.502;13.426;2023-04-22T05:10:30;100958.72;;;14.71;59.98
56928;BME280;60850;52.502;13.426;2023-04-22T05:12:57;100968.47;;;14.73;58.80
56928;BME280;60850;52.502;13.426;2023-04-22T05:15:24;100964.84;;;14.27;60.51
56928;BME280;60850;52.502;13.426;2023-04-22T05:17:52;100965.63;;;13.58;62.46
56928;BME280;60850;52.502;13.426;2023-04-22T05:20:19;100964.59;;;13.62;65.15
56928;BME280;60850;52.502;13.426;2023-04-22T05:22:46;100959.13;;;13.90;64.28
56928;BME280;60850;52.502;13.426;2023-04-22T05:25:15;100962.03;;;14.07;61.77
56928;BME280;60850;52.502;13.426;2023-04-22T05:27:42;100962.06;;;14.54;59.53
56928;BME280;60850;52.502;13.426;2023-04-22T05:30:09;100963.16;;;15.36;56.46
56928;BME280;60850;52.502;13.426;2023-04-22T05:32:36;100961.28;;;15.80;53.51
56928;BME280;60850;52.502;13.426;2023-04-22T05:35:04;100959.34;;;16.03;52.82
56928;BME280;60850;52.502;13.426;2023-04-22T05:37:31;100953.38;;;17.61;48.47
56928;BME280;60850;52.502;13.426;2023-04-22T05:39:58;100960.31;;;18.66;43.63
56928;BME280;60850;52.502;13.426;2023-04-22T05:42:26;100959.66;;;19.84;41.71
56928;BME280;60850;52.502;13.426;2023-04-22T05:44:53;100965.13;;;20.97;38.18
56928;BME280;60850;52.502;13.426;2023-04-22T05:47:20;100968.69;;;21.24;37.20
56928;BME280;60850;52.502;13.426;2023-04-22T05:49:47;100959.31;;;21.30;37.17
56928;BME280;60850;52.502;13.426;2023-04-22T05:52:14;100968.94;;;21.07;36.81
56928;BME280;60850;52.502;13.426;2023-04-22T05:54:43;100966.81;;;20.42;37.78
56928;BME280;60850;52.502;13.426;2023-04-22T05:57:10;100962.63;;;19.80;37.92
56928;BME280;60850;52.502;13.426;2023-04-22T05:59:38;100967.88;;;19.07;39.86
56928;BME280;60850;52.502;13.426;2023-04-22T06:02:05;100972.97;;;18.97;40.34
56928;BME280;60850;52.502;13.426;2023-04-22T06:04:32;100961.81;;;19.33;40.02
56928;BME280;60850;52.502;13.426;2023-04-22T06:06:59;100963.88;;;19.44;39.28
56928;BME280;60850;52.502;13.426;2023-04-22T06:09:26;100966.16;;;20.10;38.05
56928;BME280;60850;52.502;13.426;2023-04-22T06:11:53;100964.63;;;21.71;35.46
56928;BME280;60850;52.502;13.426;2023-04-22T06:14:20;100958.28;;;23.44;32.44
56928;BME280;60850;52.502;13.426;2023-04-22T06:16:48;100960.00;;;24.49;30.79
56928;BME280;60850;52.502;13.426;2023-04-22T06:19:17;100960.06;;;25.68;28.33
56928;BME280;60850;52.502;13.426;2023-04-22T06:21:44;100965.97;;;26.66;28.50
56928;BME280;60850;52.502;13.426;2023-04-22T06:24:11;100965.53;;;27.21;26.88
56928;BME280;60850;52.502;13.426;2023-04-22T06:26:38;100976.88;;;28.13;25.94
56928;BME280;60850;52.502;13.426;2023-04-22T06:29:05;100980.13;;;28.73;25.01
56928;BME280;60850;52.502;13.426;2023-04-22T06:31:32;100973.63;;;29.65;24.35
56928;BME280;60850;52.502;13.426;2023-04-22T06:34:00;100974.16;;;29.33;23.76
56928;BME280;60850;52.502;13.426;2023-04-22T06:36:27;100965.13;;;27.45;25.64
56928;BME280;60850;52.502;13.426;2023-04-22T06:38:55;100965.19;;;26.54;26.35
56928;BME280;60850;52.502;13.426;2023-04-22T06:41:22;100971.00;;;26.10;27.40
56928;BME280;60850;52.502;13.426;2023-04-22T06:43:49;100962.16;;;25.00;28.29
56928;BME280;60850;52.502;13.426;2023-04-22T06:46:16;100958.16;;;24.50;29.23
56928;BME280;60850;52.502;13.426;2023-04-22T06:48:44;100963.34;;;25.83;27.83
56928;BME280;60850;52.502;13.426;2023-04-22T06:51:13;100963.00;;;26.79;26.93
56928;BME280;60850;52.502;13.426;2023-04-22T06:53:40;100961.19;;;26.07;27.43
56928;BME280;60850;52.502;13.426;2023-04-22T06:56:07;100964.56;;;24.04;29.37
56928;BME280;60850;52.502;13.426;2023-04-22T06:58:34;100955.31;;;24.62;28.98
56928;BME280;60850;52.502;13.426;2023-04-22T07:01:01;100956.63;;;25.87;27.76
56928;BME280;60850;52.502;13.426;2023-04-22T07:03:28;100950.63;;;25.93;27.87
56928;BME280;60850;52.502;13.426;2023-04-22T07:05:55;100949.25;;;25.13;27.77
56928;BME280;60850;52.502;13.426;2023-04-22T07:08:23;100945.91;;;25.42;28.40
56928;BME280;60850;52.502;13.426;2023-04-22T07:10:50;100951.13;;;27.67;25.85
56928;BME280;60850;52.502;13.426;2023-04-22T07:13:17;100954.06;;;29.32;23.56
56928;BME280;60850;52.502;13.426;2023-04-22T07:15:44;100960.06;;;30.67;22.43
56928;BME280;60850;52.502;13.426;2023-04-22T07:18:11;100960.09;;;31.50;21.17
56928;BME280;60850;52.502;13.426;2023-04-22T07:20:38;100967.53;;;30.83;21.41
56928;BME280;60850;52.502;13.426;2023-04-22T07:23:05;100958.88;;;32.18;20.98
56928;BME280;60850;52.502;13.426;2023-04-22T07:25:34;100952.41;;;33.51;19.86
56928;BME280;60850;52.502;13.426;2023-04-22T07:28:01;100954.53;;;33.87;19.13
56928;BME280;60850;52.502;13.426;2023-04-22T07:30:28;100961.22;;;34.60;18.44
56928;BME280;60850;52.502;13.426;2023-04-22T07:32:55;100952.19;;;34.87;18.38
56928;BME280;60850;52.502;13.426;2023-04-22T07:35:21;100957.47;;;34.82;18.00
56928;BME280;60850;52.502;13.426;2023-04-22T07:37:49;100955.19;;;35.22;18.10
56928;BME280;60850;52.502;13.426;2023-04-22T07:40:16;100959.97;;;35.92;17.52
56928;BME280;60850;52.502;13.426;2023-04-22T07:42:44;100964.16;;;36.72;16.91
56928;BME280;60850;52.502;13.426;2023-04-22T07:45:11;100958.56;;;36.31;16.94
56928;BME280;60850;52.502;13.426;2023-04-22T07:47:38;100966.44;;;35.57;17.38
56928;BME280;60850;52.502;13.426;2023-04-22T07:50:06;100955.06;;;36.22;16.81
56928;BME280;60850;52.502;13.426;2023-04-22T07:52:33;100951.16;;;36.38;16.60
56928;BME280;60850;52.502;13.426;2023-04-22T07:55:00;100946.78;;;36.64;16.35
56928;BME280;60850;52.502;13.426;2023-04-22T07:57:28;100945.28;;;37.02;16.08
56928;BME280;60850;52.502;13.426;2023-04-22T07:59:56;100944.47;;;37.15;16.39
56928;BME280;60850;52.502;13.426;2023-04-22T08:02:23;100932.34;;;37.36;15.87
56928;BME280;60850;52.502;13.426;2023-04-22T08:04:50;100930.44;;;37.89;15.42
56928;BME280;60850;52.502;13.426;2023-04-22T08:07:17;100924.84;;;38.29;14.96
56928;BME280;60850;52.502;13.426;2023-04-22T08:09:44;100925.44;;;36.71;15.45
56928;BME280;60850;52.502;13.426;2023-04-22T08:12:11;100927.09;;;37.06;15.46
56928;BME280;60850;52.502;13.426;2023-04-22T08:14:38;100921.38;;;35.97;15.94
56928;BME280;60850;52.502;13.426;2023-04-22T08:17:07;100921.88;;;36.42;16.00
56928;BME280;60850;52.502;13.426;2023-04-22T08:19:34;100913.78;;;36.89;16.16
56928;BME280;60850;52.502;13.426;2023-04-22T08:22:01;100917.09;;;37.32;15.52
56928;BME280;60850;52.502;13.426;2023-04-22T08:24:28;100916.63;;;37.08;15.74
56928;BME280;60850;52.502;13.426;2023-04-22T08:26:56;100910.09;;;36.81;15.82
56928;BME280;60850;52.502;13.426;2023-04-22T08:29:23;100908.50;;;37.00;15.64
56928;BME280;60850;52.502;13.426;2023-04-22T08:31:50;100911.34;;;37.40;15.47
56928;BME280;60850;52.502;13.426;2023-04-22T08:34:19;100909.22;;;36.74;15.63
56928;BME280;60850;52.502;13.426;2023-04-22T08:36:46;100902.94;;;37.00;15.94
56928;BME280;60850;52.502;13.426;2023-04-22T08:39:13;100896.19;;;37.89;15.29
56928;BME280;60850;52.502;13.426;2023-04-22T08:41:42;100902.78;;;38.86;14.61
56928;BME280;60850;52.502;13.426;2023-04-22T08:44:10;100898.06;;;38.86;14.43
56928;BME280;60850;52.502;13.426;2023-04-22T08:46:39;100906.94;;;39.08;14.73
56928;BME280;60850;52.502;13.426;2023-04-22T08:49:06;100899.19;;;39.10;14.09
56928;BME280;60850;52.502;13.426;2023-04-22T08:51:35;100908.22;;;39.12;14.39
56928;BME280;60850;52.502;13.426;2023-04-22T08:54:02;100901.59;;;38.55;14.59
56928;BME280;60850;52.502;13.426;2023-04-22T08:56:30;100894.47;;;37.88;15.00
56928;BME280;60850;52.502;13.426;2023-04-22T08:58:57;100897.00;;;38.09;15.03
56928;BME280;60850;52.502;13.426;2023-04-22T09:01:30;100892.75;;;37.74;15.31
56928;BME280;60850;52.502;13.426;2023-04-22T09:03:58;100894.81;;;37.19;15.13
56928;BME280;60850;52.502;13.426;2023-04-22T09:06:25;100891.88;;;35.68;16.12
56928;BME280;60850;52.502;13.426;2023-04-22T09:08:56;100888.94;;;34.25;17.67
56928;BME280;60850;52.502;13.426;2023-04-22T09:11:25;100887.03;;;32.90;18.48
56928;BME280;60850;52.502;13.426;2023-04-22T09:13:53;100890.44;;;32.61;19.17
56928;BME280;60850;52.502;13.426;2023-04-22T09:16:20;100873.44;;;31.77;20.08
56928;BME280;60850;52.502;13.426;2023-04-22T09:18:47;100884.94;;;30.91;20.62
56928;BME280;60850;52.502;13.426;2023-04-22T09:21:15;100875.59;;;29.99;21.39
56928;BME280;60850;52.502;13.426;2023-04-22T09:23:44;100872.66;;;29.31;22.24
56928;BME280;60850;52.502;13.426;2023-04-22T09:26:13;100875.47;;;27.27;24.26
56928;BME280;60850;52.502;13.426;2023-04-22T09:28:48;100865.34;;;26.99;24.81
56928;BME280;60850;52.502;13.426;2023-04-22T09:31:16;100868.91;;;26.51;25.41
56928;BME280;60850;52.502;13.426;2023-04-22T09:33:47;100858.91;;;26.31;25.79
56928;BME280;60850;52.502;13.426;2023-04-22T09:36:15;100848.38;;;26.36;26.77
56928;BME280;60850;52.502;13.426;2023-04-22T09:38:51;100852.66;;;26.09;26.40
56928;BME280;60850;52.502;13.426;2023-04-22T09:41:27;100841.78;;;25.88;26.84
56928;BME280;60850;52.502;13.426;2023-04-22T09:43:54;100850.75;;;25.79;27.13
56928;BME280;60850;52.502;13.426;2023-04-22T09:46:23;100845.59;;;25.76;26.77
56928;BME280;60850;52.502;13.426;2023-04-22T09:48:50;100839.88;;;25.16;27.55
56928;BME280;60850;52.502;13.426;2023-04-22T09:51:18;100830.47;;;24.66;28.62
56928;BME280;60850;52.502;13.426;2023-04-22T09:53:56;100840.47;;;24.45;29.18
56928;BME280;60850;52.502;13.426;2023-04-22T09:59:23;100830.75;;;23.28;30.54
56928;BME280;60850;52.502;13.426;2023-04-22T10:01:52;100826.44;;;23.37;30.15
56928;BME280;60850;52.502;13.426;2023-04-22T10:04:19;100824.03;;;23.68;30.89
56928;BME280;60850;52.502;13.426;2023-04-22T10:06:48;100814.81;;;23.46;30.62
56928;BME280;60850;52.502;13.426;2023-04-22T10:09:16;100820.22;;;23.24;31.16
56928;BME280;60850;52.502;13.426;2023-04-22T10:11:44;100819.50;;;23.44;31.70
56928;BME280;60850;52.502;13.426;2023-04-22T10:14:11;100812.38;;;23.54;30.82
56928;BME280;60850;52.502;13.426;2023-04-22T10:16:42;100819.09;;;23.15;30.96
56928;BME280;60850;52.502;13.426;2023-04-22T10:19:11;100802.84;;;23.02;30.75
56928;BME280;60850;52.502;13.426;2023-04-22T10:21:41;100801.91;;;23.15;30.96
56928;BME280;60850;52.502;13.426;2023-04-22T10:24:14;100794.13;;;23.21;30.47
56928;BME280;60850;52.502;13.426;2023-04-22T10:26:47;100802.78;;;23.15;30.90
56928;BME280;60850;52.502;13.426;2023-04-22T10:29:16;100788.81;;;23.20;30.92
56928;BME280;60850;52.502;13.426;2023-04-22T10:31:50;100792.84;;;23.03;30.50
56928;BME280;60850;52.502;13.426;2023-04-22T10:34:18;100784.22;;;22.85;30.17
56928;BME280;60850;52.502;13.426;2023-04-22T10:36:53;100780.34;;;22.41;30.98
56928;BME280;60850;52.502;13.426;2023-04-22T10:39:21;100780.28;;;22.30;31.33
56928;BME280;60850;52.502;13.426;2023-04-22T10:41:53;100773.69;;;22.45;31.78
56928;BME280;60850;52.502;13.426;2023-04-22T10:44:21;100768.31;;;22.57;31.81
56928;BME280;60850;52.502;13.426;2023-04-22T10:46:57;100772.56;;;22.48;30.04
56928;BME280;60850;52.502;13.426;2023-04-22T10:49:26;100763.84;;;22.32;30.24
56928;BME280;60850;52.502;13.426;2023-04-22T10:51:56;100764.59;;;22.10;31.03
56928;BME280;60850;52.502;13.426;2023-04-22T10:54:55;100769.81;;;22.00;31.79
56928;BME280;60850;52.502;13.426;2023-04-22T10:57:28;100769.16;;;21.97;31.25
56928;BME280;60850;52.502;13.426;2023-04-22T11:00:15;100774.78;;;21.57;31.21
56928;BME280;60850;52.502;13.426;2023-04-22T11:02:45;100754.38;;;21.51;32.10
56928;BME280;60850;52.502;13.426;2023-04-22T11:05:20;100759.25;;;21.59;31.95
56928;BME280;60850;52.502;13.426;2023-04-22T11:07:48;100755.56;;;21.60;30.42
56928;BME280;60850;52.502;13.426;2023-04-22T11:10:32;100753.16;;;21.55;30.80
56928;BME280;60850;52.502;13.426;2023-04-22T11:13:00;100759.47;;;21.56;31.06
56928;BME280;60850;52.502;13.426;2023-04-22T11:15:29;100744.94;;;21.57;31.16
56928;BME280;60850;52.502;13.426;2023-04-22T11:17:58;100749.16;;;21.61;31.58
56928;BME280;60850;52.502;13.426;2023-04-22T11:20:26;100738.63;;;21.56;31.59
56928;BME280;60850;52.502;13.426;2023-04-22T11:22:55;100744.94;;;21.57;31.67
56928;BME280;60850;52.502;13.426;2023-04-22T11:25:52;100743.66;;;21.50;31.20
56928;BME280;60850;52.502;13.426;2023-04-22T11:28:21;100737.81;;;21.30;31.27
56928;BME280;60850;52.502;13.426;2023-04-22T11:30:48;100744.97;;;21.31;31.03
56928;BME280;60850;52.502;13.426;2023-04-22T11:33:22;100736.69;;;21.07;31.38
56928;BME280;60850;52.502;13.426;2023-04-22T11:35:48;100743.00;;;21.08;31.70
56928;BME280;60850;52.502;13.426;2023-04-22T11:38:16;100726.06;;;21.17;32.21
56928;BME280;60850;52.502;13.426;2023-04-22T11:40:43;100729.09;;;21.25;32.26
56928;BME280;60850;52.502;13.426;2023-04-22T11:43:11;100723.91;;;21.35;32.20
56928;BME280;60850;52.502;13.426;2023-04-22T11:45:39;100726.16;;;21.41;32.03
56928;BME280;60850;52.502;13.426;2023-04-22T11:48:08;100719.75;;;21.42;32.20
56928;BME280;60850;52.502;13.426;2023-04-22T11:50:37;100717.16;;;21.53;31.68
56928;BME280;60850;52.502;13.426;2023-04-22T11:53:12;100711.63;;;21.55;31.55
56928;BME280;60850;52.502;13.426;2023-04-22T11:55:40;100705.03;;;21.46;30.44
56928;BME280;60850;52.502;13.426;2023-04-22T11:58:09;100711.84;;;21.52;31.78
56928;BME280;60850;52.502;13.426;2023-04-22T12:00:40;100708.28;;;21.38;32.10
56928;BME280;60850;52.502;13.426;2023-04-22T12:03:12;100703.63;;;21.41;32.06
56928;BME280;60850;52.502;13.426;2023-04-22T12:05:40;100692.88;;;21.52;32.54
56928;BME280;60850;52.502;13.426;2023-04-22T12:08:09;100698.59;;;21.60;32.13
56928;BME280;60850;52.502;13.426;2023-04-22T12:10:40;100713.59;;;21.53;31.72
56928;BME280;60850;52.502;13.426;2023-04-22T12:13:08;100712.06;;;21.49;31.50
56928;BME280;60850;52.502;13.426;2023-04-22T12:15:41;100715.25;;;21.43;31.22
56928;BME280;60850;52.502;13.426;2023-04-22T12:18:08;100697.19;;;21.42;31.08
56928;BME280;60850;52.502;13.426;2023-04-22T12:20:37;100691.13;;;21.25;31.71
56928;BME280;60850;52.502;13.426;2023-04-22T12:23:11;100704.50;;;21.28;32.12
56928;BME280;60850;52.502;13.426;2023-04-22T12:25:38;100695.72;;;21.37;31.99
56928;BME280;60850;52.502;13.426;2023-04-22T12:28:05;100684.88;;;21.37;31.78
56928;BME280;60850;52.502;13.426;2023-04-22T12:30:33;100687.22;;;21.42;32.03
56928;BME280;60850;52.502;13.426;2023-04-22T12:33:01;100682.44;;;21.46;31.51
56928;BME280;60850;52.502;13.426;2023-04-22T12:35:28;100689.16;;;21.53;31.86
56928;BME280;60850;52.502;13.426;2023-04-22T12:37:55;100686.34;;;21.54;30.92
56928;BME280;60850;52.502;13.426;2023-04-22T12:40:22;100692.97;;;21.50;31.06
56928;BME280;60850;52.502;13.426;2023-04-22T12:42:49;100704.13;;;21.58;30.97
56928;BME280;60850;52.502;13.426;2023-04-22T12:45:16;100687.66;;;21.49;30.76
56928;BME280;60850;52.502;13.426;2023-04-22T12:47:43;100680.50;;;21.48;31.10